ATLHARTSFIELD - JACKSON ATLANTA INTL
METARs for airports near ATL, sorted by distance:
N 0 nm 1026' KATL 221752Z 00000KT 10SM SCT055 16/03 A3016
NW 9 nm 841' KFTY 221753Z 04005KT 10SM CLR 17/03 A3016
S 15 nm 881' KHMP 221835Z 35005KT 10SM SCT050 17/04 A3019
NE 15 nm 998' KPDK 221753Z VRB03KT 10SM FEW060 16/02 A3016
N 17 nm 1068' KMGE 221755Z 26003KT 10SM FEW045 15/00 A3015
SW 18 nm 807' KFFC 221753Z 00000KT 10SM BKN055 18/04 A3017
N 24 nm 1040' KRYY 221750Z 34004KT 10SM CLR 16/02 A3018
SW 25 nm 970' KCCO 221835Z 05003KT 10SM CLR 17/01 A3019
E 29 nm 819' KCVC 221835Z 03005KT 10SM SCT050 16/03 A3016
NW 30 nm 1289' KPUJ 221835Z 00000KT 10SM CLR 16/00 A3017
NE 30 nm 1061' KLZU 221756Z VRB03KT 10SM SCT050 16/03 A3017
NW 35 nm 758' KVPC 221835Z 28007KT 10SM CLR 17/01 A3018
W 36 nm 1164' KCTJ 221835Z 29006KT 10SM CLR 15/00 A3022
N 40 nm 1219' KCNI 221835Z 11006KT 10SM SCT060 16/02 A3017
S 41 nm 797' KOPN 221835Z 33007KT 10SM SCT050 17/01 A3016
NE 43 nm 934' KWDR 221835Z 00000KT 10SM SCT050 16/02 A3018
NE 48 nm 1276' KGVL 221753Z VRB04KT 10SM FEW049 16/03 A3018
N 49 nm 1535' KJZP 221835Z 22003KT 10SM CLR 15/00 A3017
SW 49 nm 693' KLGC 221835Z 33008KT 10SM CLR 17/03 A3017
SW 52 nm 902' KPIM 221835Z VRB03KT 10SM CLR 17/04 A3015
NE 53 nm 950' KJCA 221835Z 00000KT 10SM BKN050 16/04 A3017
NW 55 nm 655' KCZL 221835Z 35004KT 10SM CLR 17/M03 A3018
NW 56 nm 644' KRMG 221753Z VRB04KT 10SM CLR 17/M02 A3018
E 58 nm 812' KAHN 221751Z 33003KT 10SM SCT050 16/03 A3017
E 64 nm 688' KCPP 221835Z VRB06G12KT FEW050 SCT060 17/05 A3014
SE 66 nm 384' KMLJ 221835Z VRB05KT 10SM BKN055 18/05 A3014
NE 67 nm 1447' KAJR 221835Z 00000KT 7SM CLR 15/01 A3014
N 68 nm 709' KDNN 221835Z VRB05KT 9SM CLR 16/01 A3018
SE 68 nm 354' KMCN 221753Z VRB03KT 10SM FEW045 SCT060 18/07 A3015
W 71 nm 612' KANB 221753Z 10SM CLR 17/00 A3020
S 72 nm 397' KCSG 181151Z 00000KT 10SM FEW031 19/17 A3010
SE 73 nm 294' KWRB 221755Z 36008KT 10SM FEW045 SCT065 18/06 A3014
SE 75 nm 418' KPXE 221835Z 05006KT 10SM BKN050 A3015
N 76 nm 1907' KDZJ 221835Z 04008KT 360V080 10SM CLR 16/M04 A3016
SW 79 nm 776' KAUO 221756Z VRB05KT 10SM CLR 18/04 A3018
NE 80 nm 996' KTOC 212035Z 00000KT 10SM SCT016 SCT037 BKN110 15/11 A2994
E 81 nm 646' KIIY 221835Z 00000KT 10SM SCT055 16/03 A3017
W 81 nm 528' KASN 221835Z 30006KT 250V350 10SM CLR 18/01 A3019
S 83 nm 227' KLSF 221755Z 03005KT 10SM FEW050 19/06 A3013
E 84 nm 614' KEBA 221835Z 06003KT 10SM OVC050 15/04 A3016
W 85 nm 569' KGAD 221756Z 04007KT 9SM CLR 16/01 A3021
SW 88 nm 685' KALX 221835Z 09006KT 10SM CLR 18/00 A3017
SE 89 nm 438' KOKZ 221835Z 36007KT 310V030 10SM BKN043 BKN050 17/06 A3015
W 91 nm 484' KPLR 221835Z VRB04G11KT 10SM CLR 18/00 A3021
NW 92 nm 682' KCHA 221753Z 32009KT 10SM CLR 16/M01 A3021
S 92 nm 468' KACJ 221835Z VRB03KT 6SM HZ SCT050 SCT360 19/06 A3012
E 95 nm 501' KHQU 221835Z 03005KT 10SM BKN050 16/03 A3016
N 96 nm 865' KRZR 221835Z VRB03KT 10SM CLR 15/M02 A3018
SE 97 nm 311' KDBN 221835Z 02004KT 10SM SCT042 BKN050 BKN060 18/06 A3016
N 97 nm 1698' KRHP 221849Z 25006KT 10SM CLR 17/M04 A3014
TAFs for airports near ATL, sorted by distance:
N 0 nm 1026' KATL TAF KATL 221720Z 2218/2324 33006KT P6SM SCT060
  FM230100 30003KT P6SM SKC
  FM231500 20008KT P6SM SKC
NW 9 nm 841' KFTY TAF KFTY 221720Z 2218/2318 33004KT P6SM FEW060
  FM230200 00000KT P6SM SKC
  FM231500 20006KT P6SM SKC
NE 15 nm 998' KPDK TAF KPDK 221720Z 2218/2318 34004KT P6SM SCT060
  FM230200 00000KT P6SM SKC
  FM231500 21006KT P6SM SKC
N 17 nm 1068' KMGE TAF KMGE 221307Z 2213/2319 33005KT 9999 FEW050 QNH3012INS
  BECMG 2223/2224 VRB05KT 9999 SKC QNH3016INS
  BECMG 2314/2315 21007KT 9999 SKC QNH3023INS TX19/2220Z TN06/2312Z
N 24 nm 1040' KRYY TAF KRYY 221720Z 2218/2318 32006KT P6SM FEW060
  FM230200 00000KT P6SM SKC
  FM231500 20007KT P6SM SKC
E 58 nm 812' KAHN TAF KAHN 221720Z 2218/2318 04006KT P6SM SCT060
  FM230000 00000KT P6SM SKC
  FM231500 21006KT P6SM SKC
SE 68 nm 354' KMCN TAF KMCN 221720Z 2218/2318 02007KT P6SM SCT050
  FM230100 00000KT P6SM SKC
  FM231500 17005KT P6SM SKC
W 71 nm 612' KANB TAF KANB 221720Z 2218/2318 02011KT P6SM SKC
  FM230000 00000KT P6SM SKC
  FM231500 20007KT P6SM SKC
S 72 nm 397' KCSG TAF KCSG 221720Z 2218/2318 03007KT P6SM SCT060
  FM230000 00000KT P6SM SKC
  FM231500 17005KT P6SM SKC
SE 73 nm 294' KWRB TAF KWRB 221600Z 2216/2322 02009KT 9999 SCT050 QNH3013INS
  BECMG 2307/2308 VRB06KT 9999 SKC QNH3015INS TX20/2221Z TN07/2311Z
W 81 nm 528' KASN TAF KASN 221720Z 2218/2318 02011KT P6SM SKC
  FM230000 00000KT P6SM SKC
  FM231500 20007KT P6SM SKC
S 83 nm 227' KLSF TAF KLSF 221300Z 2213/2319 35010G18KT 9999 SKC 510051 QNH3010INS WND 02008KT AFT 17
  BECMG 2303/2304 VRB05KT 9999 SKC QNH3015INS TX21/2221Z TN04/2310Z
NW 92 nm 682' KCHA TAF KCHA 221720Z 2218/2318 02008KT P6SM SKC
  FM230000 VRB03KT P6SM SKC

Shortcut to this page: http://wxbay.com.

Data may contain errors.